createdAt,value
2023-05-09T00:02:21.090Z,20.20
2023-05-09T00:04:48.051Z,20.10
2023-05-09T00:07:14.857Z,20.10
2023-05-09T00:09:41.672Z,20.00
2023-05-09T00:12:09.503Z,20.00
2023-05-09T00:14:37.020Z,20.10
2023-05-09T00:17:03.897Z,20.00
2023-05-09T00:19:30.812Z,20.00
2023-05-09T00:21:57.704Z,20.00
2023-05-09T00:24:24.492Z,20.00
2023-05-09T00:26:51.349Z,20.00
2023-05-09T00:29:18.516Z,20.00
2023-05-09T00:31:45.368Z,20.10
2023-05-09T00:34:12.190Z,20.10
2023-05-09T00:36:39.083Z,20.10
2023-05-09T00:39:06.044Z,20.10
2023-05-09T00:41:33.481Z,20.00
2023-05-09T00:44:00.265Z,20.10
2023-05-09T00:46:27.667Z,20.00
2023-05-09T00:48:54.467Z,20.10
2023-05-09T00:51:22.333Z,20.10
2023-05-09T00:53:49.281Z,20.10
2023-05-09T00:56:16.454Z,20.10
2023-05-09T00:58:43.699Z,20.10
2023-05-09T01:01:10.509Z,20.10
2023-05-09T01:03:41.325Z,20.10
2023-05-09T01:06:28.149Z,20.10
2023-05-09T01:09:11.930Z,20.10
2023-05-09T01:11:52.179Z,20.10
2023-05-09T01:14:37.708Z,20.10
2023-05-09T01:17:22.085Z,20.10
2023-05-09T01:20:36.369Z,20.00
2023-05-09T01:23:27.382Z,20.00
2023-05-09T01:26:13.291Z,19.90
2023-05-09T01:29:17.634Z,19.90
2023-05-09T01:31:46.766Z,19.80
2023-05-09T01:34:16.256Z,19.80
2023-05-09T01:36:44.175Z,19.80
2023-05-09T01:39:13.800Z,19.80
2023-05-09T01:41:40.957Z,19.70
2023-05-09T01:44:11.790Z,19.70
2023-05-09T01:46:39.737Z,19.60
2023-05-09T01:49:09.490Z,19.70
2023-05-09T01:51:39.106Z,19.70
2023-05-09T01:54:07.431Z,19.60
2023-05-09T01:56:36.793Z,19.70
2023-05-09T01:59:06.571Z,19.70
2023-05-09T02:01:34.301Z,19.70
2023-05-09T02:04:02.496Z,19.70
2023-05-09T02:06:31.156Z,19.80
2023-05-09T02:08:58.769Z,19.80
2023-05-09T02:11:26.085Z,19.70
2023-05-09T02:13:53.052Z,19.70
2023-05-09T02:16:21.173Z,19.70
2023-05-09T02:18:48.622Z,19.80
2023-05-09T02:21:15.577Z,19.70
2023-05-09T02:23:42.494Z,19.70
2023-05-09T02:26:09.296Z,19.70
2023-05-09T02:28:37.536Z,19.70
2023-05-09T02:31:07.043Z,19.70
2023-05-09T02:33:36.615Z,19.80
2023-05-09T02:36:04.707Z,19.80
2023-05-09T02:38:32.249Z,19.70
2023-05-09T02:40:59.068Z,19.70
2023-05-09T02:43:26.815Z,19.70
2023-05-09T02:45:55.402Z,19.70
2023-05-09T02:48:22.260Z,19.70
2023-05-09T02:50:49.107Z,19.70
2023-05-09T02:53:16.011Z,19.70
2023-05-09T02:55:42.960Z,19.70
2023-05-09T02:58:14.114Z,19.70
2023-05-09T03:00:42.854Z,19.70
2023-05-09T03:03:10.039Z,19.70
2023-05-09T03:05:36.919Z,19.70
2023-05-09T03:08:03.894Z,19.60
2023-05-09T03:10:30.850Z,19.60
2023-05-09T03:12:57.602Z,19.60
2023-05-09T03:15:24.536Z,19.70
2023-05-09T03:17:51.756Z,19.60
2023-05-09T03:20:18.727Z,19.60
2023-05-09T03:22:45.530Z,19.50
2023-05-09T03:25:13.020Z,19.50
2023-05-09T03:27:40.109Z,19.50
2023-05-09T03:30:11.552Z,19.50
2023-05-09T03:32:39.911Z,19.50
2023-05-09T03:35:07.265Z,19.40
2023-05-09T03:37:34.043Z,19.40
2023-05-09T03:40:00.852Z,19.40
2023-05-09T03:42:31.361Z,19.40
2023-05-09T03:45:01.202Z,19.40
2023-05-09T03:47:28.942Z,19.40
2023-05-09T03:49:56.433Z,19.30
2023-05-09T03:52:24.049Z,19.40
2023-05-09T03:54:51.164Z,19.30
2023-05-09T03:57:18.274Z,19.30
2023-05-09T03:59:47.274Z,19.20
2023-05-09T04:02:15.501Z,19.20
2023-05-09T04:04:43.926Z,19.20
2023-05-09T04:07:11.172Z,19.10
2023-05-09T04:09:38.145Z,19.10
2023-05-09T04:12:05.283Z,19.10
2023-05-09T04:14:32.559Z,19.10
2023-05-09T04:16:59.560Z,19.10
2023-05-09T04:19:26.390Z,19.20
2023-05-09T04:21:53.904Z,19.10
2023-05-09T04:24:21.465Z,19.20
2023-05-09T04:26:49.011Z,19.20
2023-05-09T04:29:20.313Z,19.20
2023-05-09T04:31:51.657Z,19.20
2023-05-09T04:34:20.600Z,19.20
2023-05-09T04:36:47.983Z,19.20
2023-05-09T04:39:15.083Z,19.20
2023-05-09T04:41:51.308Z,19.20
2023-05-09T04:44:18.579Z,19.20
2023-05-09T04:46:46.131Z,19.20
2023-05-09T04:49:13.007Z,19.10
2023-05-09T04:51:39.761Z,19.10
2023-05-09T04:54:06.882Z,19.10
2023-05-09T04:56:37.150Z,19.10
2023-05-09T04:59:04.036Z,19.10
2023-05-09T05:01:31.008Z,19.10
2023-05-09T05:03:58.628Z,19.10
2023-05-09T05:06:25.537Z,19.10
2023-05-09T05:08:52.409Z,19.10
2023-05-09T05:11:20.551Z,19.10
2023-05-09T05:13:47.495Z,19.10
2023-05-09T05:16:14.374Z,19.10
2023-05-09T05:18:41.664Z,19.10
2023-05-09T05:21:08.994Z,19.10
2023-05-09T05:23:36.543Z,19.10
2023-05-09T05:26:03.803Z,19.10
2023-05-09T05:28:32.523Z,19.10
2023-05-09T05:30:59.354Z,19.10
2023-05-09T05:33:26.339Z,19.10
2023-05-09T05:35:53.611Z,19.20
2023-05-09T05:38:21.456Z,19.20
2023-05-09T05:40:52.662Z,19.20
2023-05-09T05:43:20.547Z,19.20
2023-05-09T05:45:47.798Z,19.20
2023-05-09T05:48:18.213Z,19.40
2023-05-09T05:50:46.746Z,19.40
2023-05-09T05:53:15.960Z,19.50
2023-05-09T05:55:45.873Z,19.60
2023-05-09T05:58:13.160Z,19.70
2023-05-09T06:00:40.376Z,19.70
2023-05-09T06:03:08.851Z,19.70
2023-05-09T06:05:44.714Z,19.70
2023-05-09T06:08:12.248Z,19.70
2023-05-09T06:10:39.185Z,19.80
2023-05-09T06:13:06.073Z,19.80
2023-05-09T06:15:33.881Z,19.70
2023-05-09T06:18:00.872Z,19.80
2023-05-09T06:20:27.964Z,19.80
2023-05-09T06:22:54.800Z,19.80
2023-05-09T06:25:21.595Z,19.80
2023-05-09T06:27:48.448Z,19.70
2023-05-09T06:30:25.582Z,19.70
2023-05-09T06:32:54.546Z,19.70
2023-05-09T06:35:21.740Z,19.60
2023-05-09T06:37:49.148Z,19.60
2023-05-09T06:40:17.006Z,19.60
2023-05-09T06:42:44.320Z,19.50
2023-05-09T06:45:11.655Z,19.50
2023-05-09T06:47:38.539Z,19.50
2023-05-09T06:50:05.889Z,19.60
2023-05-09T06:52:32.741Z,19.60
2023-05-09T06:54:59.574Z,19.60
2023-05-09T06:57:26.378Z,19.70
2023-05-09T06:59:53.161Z,19.70
2023-05-09T07:02:20.011Z,19.70
2023-05-09T07:04:46.913Z,19.70
2023-05-09T07:07:13.694Z,19.80
2023-05-09T07:09:40.573Z,19.70
2023-05-09T07:12:07.517Z,19.80
2023-05-09T07:14:34.333Z,19.80
2023-05-09T07:17:17.944Z,19.80
2023-05-09T07:19:48.115Z,19.90
2023-05-09T07:22:14.921Z,19.90
2023-05-09T07:24:41.822Z,19.90
2023-05-09T07:27:08.646Z,20.00
2023-05-09T07:29:35.722Z,20.00
2023-05-09T07:32:02.571Z,20.00
2023-05-09T07:34:29.541Z,20.10
2023-05-09T07:36:56.299Z,20.10
2023-05-09T07:39:23.098Z,20.10
2023-05-09T07:41:49.874Z,20.20
2023-05-09T07:44:16.687Z,20.20
2023-05-09T07:46:43.517Z,20.10
2023-05-09T07:49:10.479Z,20.10
2023-05-09T07:51:37.269Z,20.10
2023-05-09T07:54:04.080Z,20.10
2023-05-09T07:56:30.874Z,20.20
2023-05-09T07:58:57.779Z,20.20
2023-05-09T08:01:24.552Z,20.20
2023-05-09T08:03:51.381Z,20.30
2023-05-09T08:06:18.273Z,20.40
2023-05-09T08:08:45.230Z,20.50
2023-05-09T08:11:12.065Z,20.50
2023-05-09T08:13:39.080Z,20.50
2023-05-09T08:16:06.674Z,20.40
2023-05-09T08:18:33.502Z,20.50
2023-05-09T08:21:01.004Z,20.50
2023-05-09T08:23:27.972Z,20.40
2023-05-09T08:25:55.096Z,20.40
2023-05-09T08:28:24.201Z,20.50
2023-05-09T08:30:51.780Z,20.50
2023-05-09T08:33:18.637Z,20.50
2023-05-09T08:35:50.355Z,20.60
2023-05-09T08:38:17.158Z,20.60
2023-05-09T08:40:43.954Z,20.60
2023-05-09T08:43:12.474Z,20.60
2023-05-09T08:45:54.348Z,20.50
2023-05-09T08:48:23.184Z,20.40
2023-05-09T08:50:50.776Z,20.40
2023-05-09T08:53:17.909Z,20.40
2023-05-09T08:55:45.216Z,20.40
2023-05-09T08:58:13.716Z,20.40
2023-05-09T09:00:41.889Z,20.40
2023-05-09T09:03:09.929Z,20.40
2023-05-09T09:05:41.734Z,20.40
2023-05-09T09:08:11.032Z,20.50
2023-05-09T09:10:47.219Z,20.50
2023-05-09T09:13:16.277Z,20.50
2023-05-09T09:15:45.741Z,20.50
2023-05-09T09:18:23.426Z,20.60
2023-05-09T09:20:55.540Z,20.50
2023-05-09T09:23:25.727Z,20.40
2023-05-09T09:26:01.456Z,20.30
2023-05-09T09:28:28.532Z,20.30
2023-05-09T09:30:55.463Z,20.30
2023-05-09T09:33:23.675Z,20.40
2023-05-09T09:35:52.214Z,20.30
2023-05-09T09:38:20.158Z,20.40
2023-05-09T09:40:56.074Z,20.40
2023-05-09T09:43:30.529Z,20.50
2023-05-09T09:46:01.178Z,20.40
2023-05-09T09:48:33.610Z,20.40
2023-05-09T09:51:10.215Z,20.50
2023-05-09T09:53:41.476Z,20.50
2023-05-09T09:56:08.370Z,20.50
2023-05-09T09:58:35.657Z,20.40
2023-05-09T10:01:10.566Z,20.30
2023-05-09T10:03:42.005Z,20.20
2023-05-09T10:06:13.376Z,20.20
2023-05-09T10:08:41.168Z,20.20
2023-05-09T10:11:08.885Z,20.20
2023-05-09T10:13:37.444Z,20.10
2023-05-09T10:16:05.713Z,20.10
2023-05-09T10:18:33.883Z,20.00
2023-05-09T10:21:03.326Z,19.90
2023-05-09T10:23:31.818Z,19.80
2023-05-09T10:26:23.380Z,19.70
2023-05-09T10:28:54.697Z,19.80
2023-05-09T10:31:29.543Z,19.70
2023-05-09T10:33:57.155Z,19.70
2023-05-09T10:36:24.221Z,19.60
2023-05-09T10:38:55.289Z,19.50
2023-05-09T10:41:23.647Z,19.60
2023-05-09T10:43:51.115Z,19.60
2023-05-09T10:46:18.416Z,19.60
2023-05-09T10:48:46.054Z,19.50
2023-05-09T10:51:13.792Z,19.50
2023-05-09T10:53:46.135Z,19.40
2023-05-09T10:56:28.841Z,19.40
2023-05-09T10:58:56.386Z,19.40
2023-05-09T11:02:00.905Z,19.40
2023-05-09T11:04:27.909Z,19.40
2023-05-09T11:06:56.498Z,19.40
2023-05-09T11:09:34.817Z,19.40
2023-05-09T11:12:09.538Z,19.40
2023-05-09T11:14:39.300Z,19.40
2023-05-09T11:17:11.748Z,19.30
2023-05-09T11:19:47.610Z,19.30
2023-05-09T11:22:20.177Z,19.30
2023-05-09T11:24:51.621Z,19.20
2023-05-09T11:27:23.602Z,19.20
2023-05-09T11:29:51.417Z,19.20
2023-05-09T11:32:19.168Z,19.20
2023-05-09T11:34:46.693Z,19.20
2023-05-09T11:37:16.905Z,19.20
2023-05-09T11:40:03.039Z,19.20
2023-05-09T11:42:30.605Z,19.10
2023-05-09T11:44:58.603Z,19.00
2023-05-09T11:47:26.312Z,18.90
2023-05-09T11:49:53.244Z,18.90
2023-05-09T11:52:20.920Z,18.90
2023-05-09T11:54:47.903Z,18.80
2023-05-09T11:57:17.541Z,18.80
2023-05-09T11:59:45.640Z,18.80
2023-05-09T12:02:13.583Z,18.80
2023-05-09T12:04:40.588Z,18.70
2023-05-09T12:07:07.562Z,18.70
2023-05-09T12:09:38.537Z,18.70
2023-05-09T12:12:11.530Z,18.70
2023-05-09T12:14:39.703Z,18.70
2023-05-09T12:17:07.813Z,18.70
2023-05-09T12:19:34.936Z,18.80
2023-05-09T12:22:05.510Z,18.90
2023-05-09T12:24:36.187Z,18.90
2023-05-09T12:27:03.837Z,18.90
2023-05-09T12:29:31.648Z,18.90
2023-05-09T12:31:58.802Z,18.90
2023-05-09T12:34:25.770Z,18.80
2023-05-09T12:36:53.377Z,18.70
2023-05-09T12:39:24.484Z,18.60
2023-05-09T12:42:01.038Z,18.50
2023-05-09T12:44:29.817Z,18.60
2023-05-09T12:46:58.698Z,18.70
2023-05-09T12:49:26.800Z,18.70
2023-05-09T12:51:55.059Z,18.90
2023-05-09T12:54:29.680Z,19.00
2023-05-09T12:56:58.527Z,19.00
2023-05-09T12:59:29.051Z,19.00
2023-05-09T13:02:00.613Z,19.00
2023-05-09T13:04:28.911Z,19.00
2023-05-09T13:06:57.862Z,19.00
2023-05-09T13:09:26.115Z,19.10
2023-05-09T13:11:53.406Z,19.10
2023-05-09T13:14:22.533Z,19.20
2023-05-09T13:16:49.436Z,19.20
2023-05-09T13:19:16.372Z,19.20
2023-05-09T13:21:43.247Z,19.20
2023-05-09T13:24:10.128Z,19.20
2023-05-09T13:26:36.992Z,19.30
2023-05-09T13:29:03.948Z,19.20
2023-05-09T13:31:31.312Z,19.20
2023-05-09T13:33:58.292Z,19.30
2023-05-09T13:36:25.136Z,19.30
2023-05-09T13:38:51.972Z,19.40
2023-05-09T13:41:23.841Z,19.50
2023-05-09T13:43:51.557Z,19.50
2023-05-09T13:46:18.484Z,19.50
2023-05-09T13:48:45.401Z,19.40
2023-05-09T13:51:12.196Z,19.40
2023-05-09T13:53:39.334Z,19.40
2023-05-09T13:56:07.716Z,19.30
2023-05-09T13:58:34.702Z,19.30
2023-05-09T14:01:01.492Z,19.30
2023-05-09T14:03:28.509Z,19.40
2023-05-09T14:05:55.427Z,19.40
2023-05-09T14:08:22.388Z,19.40
2023-05-09T14:10:49.321Z,19.30
2023-05-09T14:13:16.114Z,19.30
2023-05-09T14:15:42.968Z,19.20
2023-05-09T14:18:09.834Z,19.30
2023-05-09T14:20:37.601Z,19.30
2023-05-09T14:23:04.636Z,19.30
2023-05-09T14:25:31.638Z,19.30
2023-05-09T14:27:59.433Z,19.40
2023-05-09T14:30:26.686Z,19.40
2023-05-09T14:32:53.568Z,19.50
2023-05-09T14:35:20.433Z,19.50
2023-05-09T14:37:47.427Z,19.50
2023-05-09T14:40:14.714Z,19.50
2023-05-09T14:42:42.165Z,19.50
2023-05-09T14:45:12.694Z,19.60
2023-05-09T14:47:41.205Z,19.50
2023-05-09T14:50:11.305Z,19.50
2023-05-09T14:52:38.160Z,19.40
2023-05-09T14:55:06.575Z,19.30
2023-05-09T14:57:33.918Z,19.20
2023-05-09T15:00:19.743Z,19.20
2023-05-09T15:02:47.841Z,19.20
2023-05-09T15:05:15.062Z,19.20
2023-05-09T15:07:41.903Z,19.20
2023-05-09T15:10:09.357Z,19.30
2023-05-09T15:12:36.137Z,19.30
2023-05-09T15:15:17.301Z,19.40
2023-05-09T15:17:44.985Z,19.30
2023-05-09T15:20:15.164Z,19.20
2023-05-09T15:22:42.491Z,19.20
2023-05-09T15:25:09.696Z,19.30
2023-05-09T15:27:37.158Z,19.40
2023-05-09T15:30:04.698Z,19.50
2023-05-09T15:32:31.759Z,19.50
2023-05-09T15:34:58.638Z,19.50
2023-05-09T15:37:25.387Z,19.50
2023-05-09T15:39:52.624Z,19.40
2023-05-09T15:42:19.650Z,19.50
2023-05-09T15:44:49.392Z,19.50
2023-05-09T15:47:16.379Z,19.50
2023-05-09T15:49:43.154Z,19.50
2023-05-09T15:52:10.750Z,19.50
2023-05-09T15:54:38.134Z,19.50
2023-05-09T15:57:05.191Z,19.40
2023-05-09T15:59:31.983Z,19.40
2023-05-09T16:01:58.907Z,19.40
2023-05-09T16:04:25.966Z,19.30
2023-05-09T16:06:53.510Z,19.20
2023-05-09T16:09:20.529Z,19.10
2023-05-09T16:11:47.728Z,19.10
2023-05-09T16:14:14.537Z,19.20
2023-05-09T16:16:42.722Z,19.20
2023-05-09T16:19:09.876Z,19.20
2023-05-09T16:21:37.902Z,19.20
2023-05-09T16:24:05.258Z,19.10
2023-05-09T16:26:32.089Z,19.10
2023-05-09T16:28:59.341Z,19.20
2023-05-09T16:31:27.494Z,19.20
2023-05-09T16:33:54.694Z,19.20
2023-05-09T16:36:22.236Z,19.10
2023-05-09T16:38:49.191Z,19.20
2023-05-09T16:41:16.146Z,19.20
2023-05-09T16:43:43.110Z,19.10
2023-05-09T16:46:10.107Z,19.10
2023-05-09T16:48:36.935Z,19.00
2023-05-09T16:51:03.859Z,19.10
2023-05-09T16:53:30.700Z,19.00
2023-05-09T16:55:57.651Z,19.00
2023-05-09T16:58:25.205Z,19.10
2023-05-09T17:00:52.134Z,19.10
2023-05-09T17:03:19.020Z,19.00
2023-05-09T17:05:45.813Z,19.10
2023-05-09T17:08:12.697Z,19.20
2023-05-09T17:10:41.449Z,19.20
2023-05-09T17:13:09.103Z,19.20
2023-05-09T17:15:36.937Z,19.20
2023-05-09T17:18:05.031Z,19.20
2023-05-09T17:20:31.889Z,19.20
2023-05-09T17:22:58.683Z,19.10
2023-05-09T17:25:25.476Z,19.10
2023-05-09T17:27:52.464Z,19.10
2023-05-09T17:30:22.084Z,19.20
2023-05-09T17:32:50.196Z,19.20
2023-05-09T17:35:19.325Z,19.20
2023-05-09T17:37:46.237Z,19.20
2023-05-09T17:40:13.820Z,19.20
2023-05-09T17:42:41.197Z,19.20
2023-05-09T17:45:09.737Z,19.20
2023-05-09T17:47:37.547Z,19.20
2023-05-09T17:50:05.066Z,19.20
2023-05-09T17:52:31.893Z,19.20
2023-05-09T17:54:58.884Z,19.10
2023-05-09T17:57:26.132Z,19.10
2023-05-09T17:59:52.983Z,19.10
2023-05-09T18:02:24.078Z,19.00
2023-05-09T18:04:51.730Z,19.00
2023-05-09T18:07:18.749Z,19.00
2023-05-09T18:09:46.395Z,19.00
2023-05-09T18:12:13.247Z,18.90
2023-05-09T18:14:40.097Z,18.90
2023-05-09T18:17:06.923Z,18.90
2023-05-09T18:19:33.945Z,18.90
2023-05-09T18:22:01.530Z,18.80
2023-05-09T18:24:28.597Z,18.80
2023-05-09T18:26:55.356Z,18.80
2023-05-09T18:29:23.195Z,18.80
2023-05-09T18:31:50.459Z,18.80
2023-05-09T18:34:17.424Z,18.80
2023-05-09T18:36:44.328Z,18.80
2023-05-09T18:39:11.900Z,18.80
2023-05-09T18:41:38.743Z,18.80
2023-05-09T18:44:05.644Z,18.80
2023-05-09T18:46:33.689Z,18.80
2023-05-09T18:49:01.121Z,18.70
2023-05-09T18:51:27.952Z,18.70
2023-05-09T18:53:54.719Z,18.70
2023-05-09T18:56:22.213Z,18.70
2023-05-09T18:58:52.418Z,18.70
2023-05-09T19:01:19.627Z,18.70
2023-05-09T19:03:47.585Z,18.80
2023-05-09T19:06:14.958Z,18.80
2023-05-09T19:08:43.356Z,18.80
2023-05-09T19:11:11.608Z,18.70
2023-05-09T19:13:48.413Z,18.80
2023-05-09T19:16:17.167Z,18.80
2023-05-09T19:18:44.081Z,18.80
2023-05-09T19:21:13.060Z,18.80
2023-05-09T19:23:39.826Z,18.70
2023-05-09T19:26:07.029Z,18.80
2023-05-09T19:28:34.861Z,18.80
2023-05-09T19:31:02.367Z,18.80
2023-05-09T19:33:29.287Z,18.70
2023-05-09T19:35:56.121Z,18.80
2023-05-09T19:38:22.987Z,18.80
2023-05-09T19:40:51.102Z,18.80
2023-05-09T19:43:18.050Z,18.80
2023-05-09T19:45:44.989Z,18.70
2023-05-09T19:48:15.305Z,18.70
2023-05-09T19:50:43.139Z,18.70
2023-05-09T19:53:10.411Z,18.70
2023-05-09T19:55:37.638Z,18.70
2023-05-09T19:58:05.081Z,18.70
2023-05-09T20:00:32.275Z,18.70
2023-05-09T20:02:59.856Z,18.70
2023-05-09T20:05:29.913Z,18.80
2023-05-09T20:07:57.113Z,18.80
2023-05-09T20:10:24.200Z,18.80
2023-05-09T20:12:52.985Z,18.70
2023-05-09T20:15:23.754Z,18.70
2023-05-09T20:17:50.523Z,18.70
2023-05-09T20:20:18.384Z,18.60
2023-05-09T20:22:45.385Z,18.60
2023-05-09T20:25:13.658Z,18.60
2023-05-09T20:27:41.262Z,18.50
2023-05-09T20:30:08.634Z,18.40
2023-05-09T20:32:35.484Z,18.40
2023-05-09T20:35:02.826Z,18.30
2023-05-09T20:37:29.927Z,18.40
2023-05-09T20:39:56.909Z,18.40
2023-05-09T20:42:24.283Z,18.30
2023-05-09T20:44:51.627Z,18.30
2023-05-09T20:47:18.600Z,18.30
2023-05-09T20:49:45.507Z,18.30
2023-05-09T20:52:12.547Z,18.20
2023-05-09T20:54:39.388Z,18.10
2023-05-09T20:57:06.250Z,18.10
2023-05-09T20:59:33.082Z,18.00
2023-05-09T21:01:59.949Z,18.00
2023-05-09T21:04:26.885Z,17.90
2023-05-09T21:06:53.799Z,17.90
2023-05-09T21:09:20.604Z,17.70
2023-05-09T21:11:47.462Z,17.80
2023-05-09T21:14:14.426Z,17.70
2023-05-09T21:16:43.926Z,17.70
2023-05-09T21:19:11.007Z,17.70
2023-05-09T21:21:37.960Z,17.70
2023-05-09T21:24:08.976Z,17.70
2023-05-09T21:26:36.391Z,17.70
2023-05-09T21:29:03.389Z,17.70
2023-05-09T21:31:30.349Z,17.70
2023-05-09T21:33:58.979Z,17.70
2023-05-09T21:36:25.926Z,17.70
2023-05-09T21:38:52.681Z,17.70
2023-05-09T21:41:19.443Z,17.70
2023-05-09T21:43:46.241Z,17.80
2023-05-09T21:46:13.121Z,17.70
2023-05-09T21:48:39.977Z,17.70
2023-05-09T21:51:08.549Z,17.70
2023-05-09T21:53:35.285Z,17.80
2023-05-09T21:56:02.309Z,17.70
2023-05-09T21:58:29.056Z,17.70
2023-05-09T22:00:55.882Z,17.70
2023-05-09T22:03:23.287Z,17.80
2023-05-09T22:05:50.170Z,17.80
2023-05-09T22:08:16.959Z,17.80
2023-05-09T22:10:43.780Z,17.90
2023-05-09T22:13:10.615Z,17.90
2023-05-09T22:15:37.364Z,17.90
2023-05-09T22:18:04.362Z,17.90
2023-05-09T22:20:31.212Z,17.90
2023-05-09T22:22:58.039Z,18.00
2023-05-09T22:25:24.846Z,18.00
2023-05-09T22:27:51.612Z,18.00
2023-05-09T22:30:18.532Z,18.00
2023-05-09T22:32:45.872Z,18.00
2023-05-09T22:35:12.676Z,18.00
2023-05-09T22:37:39.505Z,18.00
2023-05-09T22:40:06.979Z,18.00
2023-05-09T22:42:34.835Z,18.00
2023-05-09T22:45:02.196Z,18.00
2023-05-09T22:47:29.084Z,18.00
2023-05-09T22:49:55.982Z,18.00
2023-05-09T22:52:22.859Z,18.00
2023-05-09T22:54:49.606Z,18.00
2023-05-09T22:57:18.033Z,17.90
2023-05-09T22:59:45.201Z,18.00
2023-05-09T23:02:12.954Z,18.00
2023-05-09T23:04:39.807Z,18.00
2023-05-09T23:07:07.420Z,18.00
2023-05-09T23:09:34.780Z,18.00
2023-05-09T23:12:02.609Z,18.00
2023-05-09T23:14:29.579Z,18.00
2023-05-09T23:16:56.715Z,18.00
2023-05-09T23:19:23.682Z,18.00
2023-05-09T23:21:50.549Z,18.00
2023-05-09T23:24:17.603Z,18.00
2023-05-09T23:26:44.789Z,18.00
2023-05-09T23:29:11.825Z,18.00
2023-05-09T23:31:38.966Z,18.00
2023-05-09T23:34:05.786Z,18.00
2023-05-09T23:36:32.870Z,17.90
2023-05-09T23:38:59.671Z,18.00
2023-05-09T23:41:26.458Z,17.90
2023-05-09T23:43:53.267Z,18.00
2023-05-09T23:46:20.066Z,18.00
2023-05-09T23:48:46.858Z,18.00
2023-05-09T23:51:13.694Z,18.00
2023-05-09T23:53:41.108Z,17.90
2023-05-09T23:56:08.240Z,18.00
2023-05-09T23:58:35.052Z,18.00
